createdAt,value
2019-06-01T00:01:51.258Z,77.82
2019-06-01T00:04:02.213Z,77.80
2019-06-01T00:06:13.035Z,77.81
2019-06-01T00:08:23.878Z,77.78
2019-06-01T00:10:34.822Z,77.74
2019-06-01T00:12:45.645Z,77.73
2019-06-01T00:14:56.528Z,77.45
2019-06-01T00:17:07.446Z,77.79
2019-06-01T00:19:20.499Z,77.93
2019-06-01T00:21:31.370Z,78.24
2019-06-01T00:23:42.500Z,78.44
2019-06-01T00:25:53.373Z,78.41
2019-06-01T00:28:04.295Z,78.74
2019-06-01T00:30:26.672Z,79.19
2019-06-01T00:32:28.078Z,79.56
2019-06-01T00:34:38.933Z,79.80
2019-06-01T00:36:49.956Z,80.28
2019-06-01T00:39:00.775Z,80.45
2019-06-01T00:41:11.635Z,80.17
2019-06-01T00:43:22.462Z,80.24
2019-06-01T00:45:33.312Z,80.09
2019-06-01T00:47:44.722Z,80.15
2019-06-01T00:49:55.577Z,80.22
2019-06-01T00:52:06.424Z,80.32
2019-06-01T00:54:17.249Z,80.45
2019-06-01T00:56:28.119Z,80.36
2019-06-01T00:58:39.029Z,80.59
2019-06-01T01:00:52.002Z,80.59
2019-06-01T01:03:02.773Z,80.91
2019-06-01T01:05:15.922Z,81.11
2019-06-01T01:07:26.752Z,81.07
2019-06-01T01:09:37.579Z,80.90
2019-06-01T01:11:49.162Z,80.99
2019-06-01T01:14:00.049Z,80.78
2019-06-01T01:16:10.901Z,80.77
2019-06-01T01:18:21.727Z,81.15
2019-06-01T01:20:33.561Z,81.24
2019-06-01T01:22:44.403Z,81.33
2019-06-01T01:24:56.502Z,81.36
2019-06-01T01:27:07.355Z,81.10
2019-06-01T01:29:18.222Z,81.21
2019-06-01T01:31:29.089Z,81.53
2019-06-01T01:33:39.892Z,81.37
2019-06-01T01:35:52.602Z,81.29
2019-06-01T01:38:03.455Z,81.27
2019-06-01T01:40:14.369Z,81.48
2019-06-01T01:42:25.224Z,81.54
2019-06-01T01:44:36.044Z,81.41
2019-06-01T01:46:46.872Z,82.06
2019-06-01T01:48:58.820Z,82.02
2019-06-01T01:51:09.631Z,82.16
2019-06-01T01:53:20.475Z,82.15
2019-06-01T01:55:31.339Z,82.06
2019-06-01T01:57:42.209Z,82.13
2019-06-01T01:59:53.389Z,82.28
2019-06-01T02:02:04.266Z,82.33
2019-06-01T02:04:15.109Z,82.32
2019-06-01T02:06:29.007Z,82.33
2019-06-01T02:08:38.787Z,82.50
2019-06-01T02:10:49.613Z,82.85
2019-06-01T02:13:02.136Z,83.28
2019-06-01T02:15:15.080Z,83.32
2019-06-01T02:17:26.013Z,83.35
2019-06-01T02:19:36.857Z,83.30
2019-06-01T02:21:47.703Z,83.19
2019-06-01T02:23:59.018Z,83.00
2019-06-01T02:26:10.063Z,83.05
2019-06-01T02:28:20.942Z,83.40
2019-06-01T02:30:31.909Z,83.65
2019-06-01T02:32:42.840Z,83.57
2019-06-01T02:34:54.338Z,83.35
2019-06-01T02:37:05.226Z,83.22
2019-06-01T02:39:16.149Z,83.15
2019-06-01T02:41:26.974Z,83.17
2019-06-01T02:43:38.014Z,83.23
2019-06-01T02:45:48.838Z,83.20
2019-06-01T02:48:01.508Z,83.09
2019-06-01T02:50:14.298Z,83.19
2019-06-01T02:52:25.237Z,83.34
2019-06-01T02:54:36.115Z,83.36
2019-06-01T02:56:46.901Z,83.07
2019-06-01T02:58:58.273Z,83.09
2019-06-01T03:01:33.566Z,83.16
2019-06-01T03:03:44.509Z,83.12
2019-06-01T03:05:57.366Z,83.08
2019-06-01T03:08:08.368Z,83.35
2019-06-01T03:10:19.318Z,83.26
2019-06-01T03:12:30.452Z,83.23
2019-06-01T03:14:43.001Z,83.35
2019-06-01T03:16:55.742Z,83.40
2019-06-01T03:19:08.061Z,83.33
2019-06-01T03:21:20.627Z,83.22
2019-06-01T03:23:33.446Z,83.02
2019-06-01T03:25:47.199Z,83.09
2019-06-01T03:28:00.063Z,83.27
2019-06-01T03:30:14.549Z,83.37
2019-06-01T03:32:36.380Z,83.35
2019-06-01T03:34:36.817Z,83.21
2019-06-01T03:36:47.736Z,83.50
2019-06-01T03:38:59.879Z,84.07
2019-06-01T03:41:10.945Z,84.19
2019-06-01T03:43:22.058Z,84.46
2019-06-01T03:45:32.903Z,84.93
2019-06-01T03:47:43.938Z,85.08
2019-06-01T03:49:54.865Z,85.00
2019-06-01T03:52:06.871Z,85.06
2019-06-01T03:54:17.735Z,85.15
2019-06-01T03:56:28.600Z,85.26
2019-06-01T03:58:39.428Z,85.11
2019-06-01T04:00:50.287Z,85.09
2019-06-01T04:03:01.110Z,85.19
2019-06-01T04:05:13.905Z,85.27
2019-06-01T04:07:24.820Z,85.44
2019-06-01T04:09:35.754Z,85.21
2019-06-01T04:11:46.583Z,85.12
2019-06-01T04:13:57.409Z,85.07
2019-06-01T04:16:08.247Z,84.82
2019-06-01T04:18:19.070Z,84.53
2019-06-01T04:20:29.937Z,84.23
2019-06-01T04:22:40.832Z,83.81
2019-06-01T04:24:51.658Z,83.37
2019-06-01T04:27:04.041Z,83.07
2019-06-01T04:29:15.036Z,82.65
2019-06-01T04:31:25.888Z,82.17
2019-06-01T04:33:36.705Z,81.75
2019-06-01T04:35:47.523Z,81.45
2019-06-01T04:37:58.362Z,81.20
2019-06-01T04:40:09.542Z,80.71
2019-06-01T04:42:20.574Z,80.15
2019-06-01T04:44:31.392Z,79.67
2019-06-01T04:46:42.229Z,79.58
2019-06-01T04:48:53.053Z,79.51
2019-06-01T04:51:04.544Z,79.18
2019-06-01T04:53:15.509Z,78.90
2019-06-01T04:55:26.417Z,78.67
2019-06-01T04:57:37.337Z,78.50
2019-06-01T04:59:48.136Z,78.33
2019-06-01T05:01:59.015Z,77.97
2019-06-01T05:04:11.083Z,77.84
2019-06-01T05:06:22.152Z,77.84
2019-06-01T05:08:32.967Z,77.38
2019-06-01T05:10:43.804Z,77.14
2019-06-01T05:12:54.809Z,76.77
2019-06-01T05:15:09.942Z,76.14
2019-06-01T05:17:20.940Z,75.75
2019-06-01T05:19:31.748Z,75.44
2019-06-01T05:21:42.585Z,75.17
2019-06-01T05:23:53.422Z,74.74
2019-06-01T05:26:04.237Z,74.00
2019-06-01T05:28:15.352Z,73.51
2019-06-01T05:30:26.400Z,73.95
2019-06-01T05:32:37.251Z,74.01
2019-06-01T05:34:48.079Z,73.81
2019-06-01T05:36:58.937Z,73.43
2019-06-01T05:39:10.335Z,73.17
2019-06-01T05:41:21.191Z,73.16
2019-06-01T05:43:32.016Z,72.93
2019-06-01T05:45:42.854Z,72.17
2019-06-01T05:47:53.680Z,70.73
2019-06-01T05:50:05.832Z,70.61
2019-06-01T05:52:16.786Z,70.85
2019-06-01T05:54:27.618Z,70.60
2019-06-01T05:56:38.465Z,69.75
2019-06-01T05:58:49.322Z,69.48
2019-06-01T06:01:00.158Z,69.67
2019-06-01T06:03:12.848Z,69.67
2019-06-01T06:05:23.758Z,70.20
2019-06-01T06:07:35.516Z,67.78
2019-06-01T06:09:46.368Z,67.62
2019-06-01T06:11:57.223Z,66.88
2019-06-01T06:14:08.027Z,65.54
2019-06-01T06:16:20.739Z,65.21
2019-06-01T06:18:31.667Z,64.82
2019-06-01T06:20:42.485Z,64.25
2019-06-01T06:22:53.424Z,64.01
2019-06-01T06:25:04.762Z,64.14
2019-06-01T06:27:16.458Z,64.86
2019-06-01T06:29:27.409Z,61.23
2019-06-01T06:31:38.251Z,61.49
2019-06-01T06:33:56.360Z,62.16
2019-06-01T06:36:01.935Z,61.83
2019-06-01T06:38:13.595Z,61.45
2019-06-01T06:40:24.616Z,60.84
2019-06-01T06:42:35.437Z,60.27
2019-06-01T06:44:46.427Z,59.00
2019-06-01T06:46:57.270Z,58.84
2019-06-01T06:49:10.087Z,58.94
2019-06-01T06:51:21.298Z,58.28
2019-06-01T06:53:35.011Z,60.04
2019-06-01T06:55:45.038Z,58.79
2019-06-01T06:57:56.031Z,58.43
2019-06-01T07:00:07.468Z,54.60
2019-06-01T07:02:18.746Z,54.01
2019-06-01T07:04:29.734Z,55.22
2019-06-01T07:06:40.564Z,55.07
2019-06-01T07:08:51.412Z,54.43
2019-06-01T07:11:02.331Z,55.60
2019-06-01T07:13:13.282Z,55.48
2019-06-01T07:15:25.449Z,56.18
2019-06-01T07:17:36.431Z,57.32
2019-06-01T07:19:47.370Z,56.40
2019-06-01T07:21:58.226Z,54.68
2019-06-01T07:24:09.067Z,56.44
2019-06-01T07:26:20.118Z,53.95
2019-06-01T07:28:31.097Z,53.03
2019-06-01T07:30:50.346Z,53.05
2019-06-01T07:32:55.953Z,53.16
2019-06-01T07:35:06.866Z,51.05
2019-06-01T07:37:17.721Z,49.31
2019-06-01T07:39:29.057Z,49.21
2019-06-01T07:41:40.118Z,50.95
2019-06-01T07:43:50.960Z,48.46
2019-06-01T07:46:01.796Z,47.38
2019-06-01T07:48:12.745Z,47.26
2019-06-01T07:50:23.972Z,46.51
2019-06-01T07:52:34.930Z,44.92
2019-06-01T07:54:45.764Z,44.92
2019-06-01T07:56:56.633Z,44.28
2019-06-01T07:59:07.463Z,45.98
2019-06-01T08:01:18.394Z,45.17
2019-06-01T08:03:32.866Z,44.62
2019-06-01T08:05:42.083Z,45.72
2019-06-01T08:07:52.958Z,47.44
2019-06-01T08:10:04.893Z,43.62
2019-06-01T08:12:15.735Z,44.86
2019-06-01T08:14:26.584Z,43.65
2019-06-01T08:16:37.400Z,42.71
2019-06-01T08:18:48.278Z,44.27
2019-06-01T08:20:59.108Z,44.40
2019-06-01T08:23:10.038Z,44.79
2019-06-01T08:25:22.068Z,40.89
2019-06-01T08:27:33.201Z,42.55
2019-06-01T08:29:44.012Z,41.18
2019-06-01T08:31:55.877Z,42.04
2019-06-01T08:34:10.355Z,40.88
2019-06-01T08:36:21.286Z,44.17
2019-06-01T08:38:33.663Z,45.45
2019-06-01T08:40:44.650Z,44.32
2019-06-01T08:42:55.503Z,42.29
2019-06-01T08:45:07.456Z,39.95
2019-06-01T08:47:18.272Z,40.68
2019-06-01T08:49:30.728Z,40.31
2019-06-01T08:51:41.989Z,40.50
2019-06-01T08:53:52.863Z,40.36
2019-06-01T08:56:03.931Z,42.92
2019-06-01T08:58:14.812Z,43.34
2019-06-01T09:00:26.325Z,37.93
2019-06-01T09:02:37.374Z,38.38
2019-06-01T09:04:48.316Z,37.70
2019-06-01T09:06:59.155Z,38.24
2019-06-01T09:09:11.819Z,38.28
2019-06-01T09:11:22.767Z,39.30
2019-06-01T09:13:33.637Z,38.66
2019-06-01T09:15:44.554Z,38.58
2019-06-01T09:17:55.380Z,37.71
2019-06-01T09:20:06.322Z,38.83
2019-06-01T09:22:17.149Z,39.74
2019-06-01T09:24:28.107Z,39.62
2019-06-01T09:26:39.014Z,37.35
2019-06-01T09:28:49.839Z,37.28
2019-06-01T09:31:00.690Z,37.39
2019-06-01T09:33:11.569Z,42.18
2019-06-01T09:35:22.543Z,40.00
2019-06-01T09:37:34.936Z,38.39
2019-06-01T09:39:45.923Z,36.11
2019-06-01T09:41:56.763Z,37.16
2019-06-01T09:44:07.801Z,36.72
2019-06-01T09:46:18.679Z,37.81
2019-06-01T09:48:29.548Z,38.22
2019-06-01T09:50:40.986Z,38.15
2019-06-01T09:52:51.839Z,38.48
2019-06-01T09:55:04.278Z,38.12
2019-06-01T09:57:15.178Z,37.21
2019-06-01T09:59:26.137Z,36.59
2019-06-01T10:01:36.986Z,38.94
2019-06-01T10:03:47.905Z,36.74
2019-06-01T10:06:02.267Z,40.56
2019-06-01T10:08:11.530Z,37.77
2019-06-01T10:10:22.358Z,38.71
2019-06-01T10:12:33.933Z,37.85
2019-06-01T10:14:44.958Z,36.00
2019-06-01T10:16:55.821Z,36.21
2019-06-01T10:19:06.811Z,35.95
2019-06-01T10:21:17.727Z,36.94
2019-06-01T10:23:30.046Z,37.60
2019-06-01T10:25:41.099Z,37.68
2019-06-01T10:27:52.066Z,38.68
2019-06-01T10:30:06.699Z,38.25
2019-06-01T10:32:17.544Z,37.11
2019-06-01T10:34:28.541Z,33.70
2019-06-01T10:36:40.142Z,34.44
2019-06-01T10:38:51.207Z,35.51
2019-06-01T10:41:02.030Z,34.37
2019-06-01T10:43:12.877Z,33.51
2019-06-01T10:45:23.714Z,33.10
2019-06-01T10:47:35.821Z,33.99
2019-06-01T10:49:46.801Z,33.49
2019-06-01T10:51:57.650Z,32.84
2019-06-01T10:54:08.496Z,32.73
2019-06-01T10:56:19.345Z,34.01
2019-06-01T10:58:30.431Z,32.17
2019-06-01T11:00:47.991Z,34.93
2019-06-01T11:02:54.027Z,36.84
2019-06-01T11:05:05.925Z,34.19
2019-06-01T11:07:16.912Z,34.27
2019-06-01T11:09:27.841Z,35.48
2019-06-01T11:11:39.078Z,32.87
2019-06-01T11:13:50.102Z,34.51
2019-06-01T11:16:01.031Z,32.75
2019-06-01T11:18:11.881Z,34.90
2019-06-01T11:20:22.719Z,33.23
2019-06-01T11:22:33.794Z,38.99
2019-06-01T11:24:44.738Z,35.34
2019-06-01T11:26:55.567Z,36.78
2019-06-01T11:29:06.435Z,34.05
2019-06-01T11:31:17.361Z,35.66
2019-06-01T11:33:28.340Z,31.59
2019-06-01T11:35:39.286Z,32.95
2019-06-01T11:37:50.220Z,33.60
2019-06-01T11:40:01.277Z,32.87
2019-06-01T11:42:12.083Z,33.04
2019-06-01T11:44:23.055Z,34.21
2019-06-01T11:46:34.738Z,35.10
2019-06-01T11:48:45.833Z,36.71
2019-06-01T11:50:56.813Z,35.39
2019-06-01T11:53:07.702Z,35.13
2019-06-01T11:55:18.641Z,36.55
2019-06-01T11:57:29.510Z,34.15
2019-06-01T11:59:41.606Z,33.98
2019-06-01T12:01:52.509Z,32.64
2019-06-01T12:04:03.451Z,34.75
2019-06-01T12:06:14.278Z,35.35
2019-06-01T12:08:25.106Z,32.69
2019-06-01T12:10:36.657Z,34.83
2019-06-01T12:12:47.584Z,34.00
2019-06-01T12:14:58.445Z,34.12
2019-06-01T12:17:09.371Z,32.58
2019-06-01T12:19:20.224Z,31.49
2019-06-01T12:21:31.038Z,35.56
2019-06-01T12:23:42.891Z,33.68
2019-06-01T12:25:54.082Z,33.04
2019-06-01T12:28:04.907Z,34.20
2019-06-01T12:30:16.048Z,34.15
2019-06-01T12:32:26.867Z,35.73
2019-06-01T12:34:38.106Z,33.93
2019-06-01T12:36:49.005Z,35.47
2019-06-01T12:38:59.818Z,33.61
2019-06-01T12:41:10.664Z,35.24
2019-06-01T12:43:21.502Z,34.95
2019-06-01T12:45:32.491Z,33.53
2019-06-01T12:47:43.945Z,35.87
2019-06-01T12:49:54.967Z,34.01
2019-06-01T12:52:05.820Z,34.78
2019-06-01T12:54:16.761Z,35.83
2019-06-01T12:56:27.604Z,34.16
2019-06-01T12:58:39.800Z,36.17
2019-06-01T13:00:50.708Z,34.53
2019-06-01T13:03:07.471Z,35.18
2019-06-01T13:05:15.872Z,34.51
2019-06-01T13:07:26.725Z,33.54
2019-06-01T13:09:37.577Z,35.06
2019-06-01T13:11:49.462Z,34.57
2019-06-01T13:14:04.114Z,34.05
2019-06-01T13:16:13.353Z,34.14
2019-06-01T13:18:24.187Z,33.55
2019-06-01T13:20:35.000Z,33.86
2019-06-01T13:22:45.829Z,34.06
2019-06-01T13:24:56.670Z,33.87
2019-06-01T13:27:07.521Z,36.08
2019-06-01T13:29:18.371Z,35.64
2019-06-01T13:31:29.324Z,35.59
2019-06-01T13:33:40.210Z,36.30
2019-06-01T13:35:51.129Z,36.22
2019-06-01T13:38:11.651Z,35.37
2019-06-01T13:40:14.994Z,34.55
2019-06-01T13:42:25.830Z,35.48
2019-06-01T13:44:36.696Z,35.61
2019-06-01T13:46:49.629Z,35.37
2019-06-01T13:49:00.547Z,35.56
2019-06-01T13:51:11.412Z,36.63
2019-06-01T13:53:22.255Z,36.43
2019-06-01T13:55:33.109Z,36.60
2019-06-01T13:57:44.266Z,36.59
2019-06-01T13:59:57.217Z,35.20
2019-06-01T14:02:08.182Z,36.13
2019-06-01T14:04:19.036Z,36.93
2019-06-01T14:06:29.858Z,36.84
2019-06-01T14:08:40.801Z,36.68
2019-06-01T14:10:51.747Z,36.02
2019-06-01T14:13:05.195Z,35.33
2019-06-01T14:15:15.547Z,36.32
2019-06-01T14:17:26.392Z,36.58
2019-06-01T14:19:37.309Z,36.86
2019-06-01T14:21:48.201Z,36.05
2019-06-01T14:23:59.055Z,37.07
2019-06-01T14:26:09.885Z,37.43
2019-06-01T14:28:20.749Z,36.87
2019-06-01T14:30:31.601Z,35.98
2019-06-01T14:32:42.451Z,36.87
2019-06-01T14:34:53.428Z,35.89
2019-06-01T14:37:05.449Z,36.25
2019-06-01T14:39:16.408Z,35.28
2019-06-01T14:41:27.319Z,35.70
2019-06-01T14:43:38.266Z,37.72
2019-06-01T14:45:49.569Z,37.92
2019-06-01T14:48:00.561Z,37.12
2019-06-01T14:50:13.313Z,36.58
2019-06-01T14:52:24.131Z,34.92
2019-06-01T14:54:35.067Z,36.46
2019-06-01T14:56:45.937Z,37.10
2019-06-01T14:58:56.781Z,35.64
2019-06-01T15:01:07.724Z,35.29
2019-06-01T15:03:18.539Z,34.97
2019-06-01T15:05:29.499Z,34.98
2019-06-01T15:07:40.438Z,36.04
2019-06-01T15:09:52.262Z,35.70
2019-06-01T15:12:03.616Z,35.81
2019-06-01T15:14:14.421Z,36.22
2019-06-01T15:16:25.272Z,35.77
2019-06-01T15:18:36.112Z,35.02
2019-06-01T15:20:46.945Z,35.77
2019-06-01T15:22:58.397Z,36.04
2019-06-01T15:25:09.715Z,36.45
2019-06-01T15:27:20.587Z,35.59
2019-06-01T15:29:31.406Z,36.08
2019-06-01T15:31:42.265Z,37.14
2019-06-01T15:33:53.262Z,35.39
2019-06-01T15:36:04.325Z,36.08
2019-06-01T15:38:15.164Z,36.31
2019-06-01T15:40:26.040Z,35.73
2019-06-01T15:42:37.009Z,35.77
2019-06-01T15:44:47.865Z,35.45
2019-06-01T15:46:59.681Z,35.54
2019-06-01T15:49:10.786Z,35.42
2019-06-01T15:51:21.651Z,35.34
2019-06-01T15:53:32.496Z,35.97
2019-06-01T15:55:43.448Z,36.65
2019-06-01T15:57:54.445Z,36.00
2019-06-01T16:00:09.562Z,35.72
2019-06-01T16:02:20.446Z,35.07
2019-06-01T16:04:31.287Z,35.28
2019-06-01T16:06:42.237Z,35.25
2019-06-01T16:08:53.281Z,35.49
2019-06-01T16:11:06.298Z,36.45
2019-06-01T16:13:17.097Z,37.10
2019-06-01T16:15:27.940Z,36.16
2019-06-01T16:17:38.821Z,35.90
2019-06-01T16:19:49.747Z,36.06
2019-06-01T16:22:00.610Z,35.82
2019-06-01T16:24:11.434Z,34.99
2019-06-01T16:26:22.292Z,35.11
2019-06-01T16:28:33.238Z,35.12
2019-06-01T16:30:44.170Z,35.92
2019-06-01T16:32:55.015Z,37.42
2019-06-01T16:35:06.236Z,37.11
2019-06-01T16:37:17.212Z,35.96
2019-06-01T16:39:28.082Z,35.52
2019-06-01T16:41:39.073Z,35.31
2019-06-01T16:43:49.928Z,36.44
2019-06-01T16:46:02.090Z,36.54
2019-06-01T16:48:13.366Z,37.15
2019-06-01T16:50:24.207Z,35.67
2019-06-01T16:52:35.049Z,35.39
2019-06-01T16:54:45.977Z,37.56
2019-06-01T16:56:58.054Z,36.85
2019-06-01T16:59:09.156Z,36.72
2019-06-01T17:01:20.109Z,36.54
2019-06-01T17:03:30.964Z,36.62
2019-06-01T17:05:41.824Z,37.39
2019-06-01T17:07:52.683Z,36.78
2019-06-01T17:10:23.908Z,37.47
2019-06-01T17:12:19.618Z,37.47
2019-06-01T17:14:30.570Z,37.83
2019-06-01T17:16:41.416Z,38.28
2019-06-01T17:18:52.306Z,37.66
2019-06-01T17:21:03.580Z,37.89
2019-06-01T17:23:27.274Z,37.01
2019-06-01T17:25:27.531Z,38.70
2019-06-01T17:27:38.340Z,39.26
2019-06-01T17:29:49.204Z,39.95
2019-06-01T17:32:16.758Z,40.10
2019-06-01T17:34:12.779Z,39.02
2019-06-01T17:36:23.652Z,40.90
2019-06-01T17:38:34.529Z,40.56
2019-06-01T17:40:45.397Z,41.44
2019-06-01T17:42:56.373Z,41.13
2019-06-01T17:45:08.284Z,41.17
2019-06-01T17:47:20.158Z,41.79
2019-06-01T17:49:31.001Z,41.56
2019-06-01T17:51:41.824Z,41.70
2019-06-01T17:53:53.534Z,41.77
2019-06-01T17:56:04.516Z,41.91
2019-06-01T17:58:15.418Z,42.67
2019-06-01T18:00:26.538Z,42.71
2019-06-01T18:02:37.416Z,42.33
2019-06-01T18:04:48.344Z,42.41
2019-06-01T18:06:59.272Z,42.63
2019-06-01T18:09:10.357Z,42.27
2019-06-01T18:11:21.284Z,42.49
2019-06-01T18:13:32.206Z,42.80
2019-06-01T18:15:43.160Z,42.59
2019-06-01T18:17:53.991Z,42.89
2019-06-01T18:20:06.686Z,43.11
2019-06-01T18:22:17.657Z,43.48
2019-06-01T18:24:28.589Z,43.48
2019-06-01T18:26:39.732Z,43.80
2019-06-01T18:28:50.585Z,44.56
2019-06-01T18:31:02.755Z,44.56
2019-06-01T18:33:13.904Z,44.80
2019-06-01T18:35:25.155Z,44.80
2019-06-01T18:37:36.187Z,45.70
2019-06-01T18:39:48.212Z,45.70
2019-06-01T18:41:59.624Z,45.14
2019-06-01T18:44:11.897Z,45.28
2019-06-01T18:46:23.136Z,48.36
2019-06-01T18:48:34.206Z,49.27
2019-06-01T18:50:45.814Z,50.15
2019-06-01T18:52:56.968Z,50.65
2019-06-01T18:55:08.623Z,51.41
2019-06-01T18:57:21.503Z,51.79
2019-06-01T18:59:32.562Z,53.05
2019-06-01T19:01:43.439Z,53.25
2019-06-01T19:03:54.258Z,53.83
2019-06-01T19:06:05.301Z,54.36
2019-06-01T19:08:16.388Z,54.29
2019-06-01T19:10:27.356Z,54.31
2019-06-01T19:12:38.404Z,55.27
2019-06-01T19:14:49.371Z,55.92
2019-06-01T19:17:00.261Z,55.81
2019-06-01T19:19:12.533Z,55.57
2019-06-01T19:21:23.456Z,56.53
2019-06-01T19:23:34.394Z,56.90
2019-06-01T19:25:45.455Z,57.61
2019-06-01T19:27:56.326Z,57.82
2019-06-01T19:30:09.162Z,57.86
2019-06-01T19:32:21.361Z,58.02
2019-06-01T19:34:32.555Z,57.48
2019-06-01T19:36:45.050Z,57.94
2019-06-01T19:38:56.837Z,57.86
2019-06-01T19:41:07.659Z,58.52
2019-06-01T19:43:18.532Z,58.70
2019-06-01T19:45:29.792Z,59.22
2019-06-01T19:47:40.738Z,59.32
2019-06-01T19:49:51.584Z,59.56
2019-06-01T19:52:02.977Z,61.16
2019-06-01T19:54:15.008Z,61.53
2019-06-01T19:56:25.923Z,61.76
2019-06-01T19:58:36.793Z,61.73
2019-06-01T20:00:47.619Z,61.48
2019-06-01T20:02:58.567Z,62.35
2019-06-01T20:05:10.535Z,62.24
2019-06-01T20:07:21.574Z,62.39
2019-06-01T20:09:32.407Z,62.32
2019-06-01T20:11:43.268Z,62.87
2019-06-01T20:13:54.134Z,63.07
2019-06-01T20:16:05.020Z,63.10
2019-06-01T20:18:17.134Z,63.30
2019-06-01T20:20:28.307Z,63.30
2019-06-01T20:22:39.194Z,63.55
2019-06-01T20:24:50.155Z,63.43
2019-06-01T20:27:01.015Z,63.76
2019-06-01T20:29:12.768Z,64.25
2019-06-01T20:31:24.621Z,64.54
2019-06-01T20:33:35.461Z,64.27
2019-06-01T20:35:46.293Z,63.49
2019-06-01T20:37:57.165Z,63.61
2019-06-01T20:40:08.012Z,63.30
2019-06-01T20:42:29.461Z,63.61
2019-06-01T20:44:31.745Z,63.26
2019-06-01T20:46:42.586Z,63.88
2019-06-01T20:48:53.434Z,63.51
2019-06-01T20:51:04.310Z,63.65
2019-06-01T20:53:15.195Z,64.03
2019-06-01T20:55:26.032Z,64.03
2019-06-01T20:57:36.908Z,64.04
2019-06-01T20:59:47.740Z,63.56
2019-06-01T21:01:58.737Z,63.79
2019-06-01T21:04:09.581Z,63.70
2019-06-01T21:06:20.817Z,63.69
2019-06-01T21:08:33.028Z,63.29
2019-06-01T21:10:43.926Z,62.97
2019-06-01T21:12:54.744Z,62.91
2019-06-01T21:15:06.718Z,63.19
2019-06-01T21:17:18.486Z,62.80
2019-06-01T21:19:29.559Z,62.87
2019-06-01T21:21:40.400Z,62.72
2019-06-01T21:23:51.251Z,62.26
2019-06-01T21:26:02.329Z,62.74
2019-06-01T21:28:15.862Z,62.86
2019-06-01T21:30:25.988Z,63.22
2019-06-01T21:32:36.812Z,63.45
2019-06-01T21:34:47.675Z,63.32
2019-06-01T21:36:58.612Z,63.39
2019-06-01T21:39:09.454Z,63.27
2019-06-01T21:41:21.527Z,62.95
2019-06-01T21:43:35.386Z,62.85
2019-06-01T21:45:45.297Z,62.97
2019-06-01T21:47:56.224Z,62.85
2019-06-01T21:50:07.245Z,62.84
2019-06-01T21:52:18.264Z,62.82
2019-06-01T21:54:29.059Z,62.50
2019-06-01T21:56:39.924Z,62.74
2019-06-01T21:58:50.836Z,62.55
2019-06-01T22:01:01.911Z,63.02
2019-06-01T22:03:12.778Z,63.33
2019-06-01T22:05:25.273Z,64.17
2019-06-01T22:07:36.484Z,64.47
2019-06-01T22:09:47.317Z,64.99
2019-06-01T22:11:58.174Z,65.54
2019-06-01T22:14:09.034Z,65.66
2019-06-01T22:16:19.881Z,65.67
2019-06-01T22:18:30.762Z,65.67
2019-06-01T22:20:41.612Z,65.82
2019-06-01T22:22:52.517Z,66.03
2019-06-01T22:25:06.445Z,66.42
2019-06-01T22:27:18.114Z,66.53
2019-06-01T22:29:29.052Z,67.37
2019-06-01T22:31:40.006Z,67.27
2019-06-01T22:33:50.843Z,67.45
2019-06-01T22:36:01.672Z,67.33
2019-06-01T22:38:12.536Z,67.42
2019-06-01T22:40:24.882Z,67.37
2019-06-01T22:42:35.854Z,67.55
2019-06-01T22:44:46.710Z,67.22
2019-06-01T22:46:57.710Z,67.69
2019-06-01T22:49:08.669Z,67.97
2019-06-01T22:51:20.720Z,67.65
2019-06-01T22:53:32.451Z,67.51
2019-06-01T22:55:43.371Z,67.72
2019-06-01T22:57:54.230Z,67.61
2019-06-01T23:00:05.480Z,67.32
2019-06-01T23:02:16.296Z,67.58
2019-06-01T23:04:27.220Z,68.18
2019-06-01T23:06:40.107Z,68.41
2019-06-01T23:08:50.956Z,68.72
2019-06-01T23:11:01.923Z,69.07
2019-06-01T23:13:12.791Z,69.48
2019-06-01T23:15:23.718Z,69.63
2019-06-01T23:17:34.538Z,70.18
2019-06-01T23:19:45.389Z,69.78
2019-06-01T23:21:56.254Z,70.08
2019-06-01T23:24:07.255Z,70.68
2019-06-01T23:26:18.084Z,70.30
2019-06-01T23:28:30.308Z,70.41
2019-06-01T23:30:41.386Z,70.66
2019-06-01T23:32:52.224Z,70.66
2019-06-01T23:35:04.555Z,70.89
2019-06-01T23:37:15.480Z,71.12
2019-06-01T23:39:26.682Z,71.56
2019-06-01T23:41:37.563Z,71.60
2019-06-01T23:43:48.386Z,71.71
2019-06-01T23:45:59.307Z,71.63
2019-06-01T23:48:10.288Z,71.92
2019-06-01T23:50:21.185Z,72.07
2019-06-01T23:52:33.918Z,72.23
2019-06-01T23:54:44.759Z,71.98
2019-06-01T23:56:55.567Z,72.31
2019-06-01T23:59:06.412Z,72.05
